Port Hueneme, California
Current Conditions -  °F | °C
As of 11:51 PM on Thursday 23 Oct 2014 (Local Time) from KOXR Reporting Station
Clear Clear  
Wind Chill: 62°   Ceiling: Unl
Heat Index: 62°   Visibility: 9mi
Dew Point: 54°   Wind: 3mph
Humidity: 75%   Direction: 60°ENE
Pressure: 29.95"   Gusts: NA
Location:  34.15°N, 119.19°W
Report Text: KOXR 240651Z AUTO 06003KT 9SM CLR 17/12 A2995 RMK AO2 SLP142 T01670122
Loading
Personal Weather Stations






























Interactive Weather Map New forecast layout! Learn more

10-Day Weather Forecast

Advertisements
Track Severe Weather on mobile